createdAt,value
2023-05-08T00:00:09.312Z,14.23
2023-05-08T00:02:37.748Z,13.83
2023-05-08T00:05:07.862Z,13.73
2023-05-08T00:07:37.856Z,13.80
2023-05-08T00:10:10.100Z,12.87
2023-05-08T00:12:38.990Z,13.60
2023-05-08T00:15:08.482Z,13.07
2023-05-08T00:17:36.955Z,12.67
2023-05-08T00:20:05.703Z,13.10
2023-05-08T00:22:34.056Z,13.37
2023-05-08T00:25:03.310Z,12.97
2023-05-08T00:27:33.534Z,12.87
2023-05-08T00:30:02.140Z,13.10
2023-05-08T00:32:30.524Z,13.23
2023-05-08T00:34:58.949Z,13.37
2023-05-08T00:37:27.319Z,13.00
2023-05-08T00:39:55.763Z,12.70
2023-05-08T00:42:24.359Z,12.70
2023-05-08T00:44:54.143Z,13.23
2023-05-08T00:47:23.921Z,12.90
2023-05-08T00:49:52.420Z,13.23
2023-05-08T00:52:21.781Z,13.57
2023-05-08T00:54:51.169Z,13.50
2023-05-08T00:57:20.589Z,12.63
2023-05-08T00:59:50.338Z,12.90
2023-05-08T01:02:21.314Z,12.97
2023-05-08T01:04:50.356Z,12.50
2023-05-08T01:07:19.963Z,13.47
2023-05-08T01:09:48.375Z,12.27
2023-05-08T01:12:24.855Z,13.00
2023-05-08T01:15:05.160Z,12.73
2023-05-08T01:17:44.413Z,12.93
2023-05-08T01:20:27.649Z,12.70
2023-05-08T01:23:22.066Z,12.70
2023-05-08T01:26:29.174Z,13.07
2023-05-08T01:29:48.203Z,13.03
2023-05-08T01:32:21.651Z,13.47
2023-05-08T01:35:01.875Z,12.83
2023-05-08T01:37:36.856Z,12.73
2023-05-08T01:40:14.579Z,12.43
2023-05-08T01:42:50.699Z,12.87
2023-05-08T01:45:26.805Z,12.53
2023-05-08T01:48:05.905Z,12.37
2023-05-08T01:50:39.787Z,13.40
2023-05-08T01:53:14.823Z,13.50
2023-05-08T01:55:44.935Z,12.07
2023-05-08T01:58:14.883Z,12.40
2023-05-08T02:00:45.211Z,12.20
2023-05-08T02:03:17.888Z,11.87
2023-05-08T02:05:48.125Z,12.50
2023-05-08T02:08:16.923Z,12.90
2023-05-08T02:10:47.540Z,12.77
2023-05-08T02:13:19.296Z,12.40
2023-05-08T02:15:50.285Z,11.60
2023-05-08T02:18:22.952Z,11.90
2023-05-08T02:20:53.043Z,12.10
2023-05-08T02:23:23.687Z,11.47
2023-05-08T02:25:53.005Z,11.83
2023-05-08T02:28:23.805Z,12.00
2023-05-08T02:30:53.891Z,12.30
2023-05-08T02:33:25.453Z,11.70
2023-05-08T02:35:56.394Z,11.63
2023-05-08T02:38:26.870Z,12.13
2023-05-08T02:40:59.295Z,11.97
2023-05-08T02:43:27.887Z,12.10
2023-05-08T02:46:11.191Z,12.03
2023-05-08T02:48:53.351Z,11.80
2023-05-08T02:51:28.168Z,11.67
2023-05-08T02:54:06.291Z,11.60
2023-05-08T02:56:39.383Z,11.83
2023-05-08T02:59:16.801Z,11.63
2023-05-08T03:01:51.887Z,12.20
2023-05-08T03:04:28.166Z,12.30
2023-05-08T03:06:59.094Z,12.07
2023-05-08T03:09:41.171Z,13.63
2023-05-08T03:12:16.052Z,12.07
2023-05-08T03:14:51.071Z,11.93
2023-05-08T03:17:22.244Z,12.40
2023-05-08T03:19:58.177Z,12.53
2023-05-08T03:22:28.681Z,12.87
2023-05-08T03:24:59.538Z,11.83
2023-05-08T03:27:30.606Z,11.20
2023-05-08T03:30:00.969Z,12.00
2023-05-08T03:32:33.154Z,11.60
2023-05-08T03:35:03.844Z,12.10
2023-05-08T03:37:32.420Z,11.63
2023-05-08T03:40:01.291Z,11.77
2023-05-08T03:42:32.285Z,12.27
2023-05-08T03:45:04.267Z,12.20
2023-05-08T03:47:33.353Z,12.10
2023-05-08T03:50:04.715Z,12.40
2023-05-08T03:52:34.523Z,12.10
2023-05-08T03:55:03.719Z,11.53
2023-05-08T03:57:37.390Z,12.17
2023-05-08T04:00:14.684Z,12.10
2023-05-08T04:02:53.603Z,11.93
2023-05-08T04:05:33.054Z,11.67
2023-05-08T04:08:10.287Z,11.50
2023-05-08T04:10:44.441Z,12.10
2023-05-08T04:13:17.239Z,12.27
2023-05-08T04:15:52.634Z,11.87
2023-05-08T04:18:26.866Z,11.70
2023-05-08T04:20:57.787Z,12.17
2023-05-08T04:23:29.969Z,12.30
2023-05-08T04:26:01.339Z,11.80
2023-05-08T04:28:31.577Z,11.70
2023-05-08T04:31:00.927Z,11.67
2023-05-08T04:33:30.524Z,11.63
2023-05-08T04:36:03.629Z,11.13
2023-05-08T04:38:37.196Z,11.77
2023-05-08T04:41:06.410Z,11.87
2023-05-08T04:43:35.374Z,11.70
2023-05-08T04:46:06.891Z,11.60
2023-05-08T04:48:35.578Z,11.13
2023-05-08T04:51:05.526Z,11.67
2023-05-08T04:53:34.374Z,11.87
2023-05-08T04:56:03.062Z,12.10
2023-05-08T04:58:31.890Z,12.00
2023-05-08T05:01:03.642Z,11.37
2023-05-08T05:03:33.296Z,10.47
2023-05-08T05:06:02.528Z,11.93
2023-05-08T05:08:32.289Z,11.90
2023-05-08T05:11:00.822Z,11.63
2023-05-08T05:13:30.228Z,11.70
2023-05-08T05:16:01.095Z,14.30
2023-05-08T05:18:30.403Z,15.90
2023-05-08T05:21:00.205Z,16.87
2023-05-08T05:23:32.476Z,14.97
2023-05-08T05:26:01.841Z,14.03
2023-05-08T05:28:31.766Z,14.67
2023-05-08T05:31:01.379Z,13.07
2023-05-08T05:33:30.126Z,12.00
2023-05-08T05:35:59.315Z,12.70
2023-05-08T05:38:28.314Z,14.07
2023-05-08T05:40:58.677Z,13.27
2023-05-08T05:43:27.141Z,11.63
2023-05-08T05:45:56.418Z,11.00
2023-05-08T05:48:25.817Z,11.17
2023-05-08T05:50:54.178Z,11.03
2023-05-08T05:53:22.728Z,10.60
2023-05-08T05:55:51.300Z,9.80
2023-05-08T05:58:21.320Z,9.03
2023-05-08T06:00:50.693Z,9.33
2023-05-08T06:03:19.407Z,9.37
2023-05-08T06:05:48.541Z,9.27
2023-05-08T06:08:18.006Z,9.77
2023-05-08T06:10:46.497Z,9.63
2023-05-08T06:13:14.967Z,9.00
2023-05-08T06:15:44.945Z,8.80
2023-05-08T06:18:13.470Z,9.07
2023-05-08T06:20:41.830Z,9.30
2023-05-08T06:23:10.476Z,10.00
2023-05-08T06:25:38.935Z,9.97
2023-05-08T06:28:08.362Z,9.60
2023-05-08T06:30:36.796Z,9.23
2023-05-08T06:33:06.548Z,9.33
2023-05-08T06:35:35.278Z,8.90
2023-05-08T06:38:03.691Z,9.50
2023-05-08T06:40:32.133Z,9.63
2023-05-08T06:43:00.608Z,9.50
2023-05-08T06:45:29.072Z,8.90
2023-05-08T06:47:57.584Z,9.60
2023-05-08T06:50:27.455Z,9.43
2023-05-08T06:52:55.945Z,9.30
2023-05-08T06:55:24.484Z,9.37
2023-05-08T06:57:52.922Z,9.30
2023-05-08T07:00:21.707Z,9.40
2023-05-08T07:02:50.137Z,8.90
2023-05-08T07:05:20.141Z,8.93
2023-05-08T07:07:50.146Z,9.10
2023-05-08T07:10:21.163Z,8.70
2023-05-08T07:12:49.817Z,9.63
2023-05-08T07:17:52.992Z,8.70
2023-05-08T07:20:21.896Z,9.37
2023-05-08T07:22:52.062Z,9.70
2023-05-08T07:25:20.754Z,9.73
2023-05-08T07:27:49.118Z,9.23
2023-05-08T07:30:18.294Z,8.20
2023-05-08T07:32:46.934Z,8.57
2023-05-08T07:35:16.068Z,8.83
2023-05-08T07:37:44.896Z,9.98
2023-05-08T07:40:14.723Z,9.13
2023-05-08T07:42:44.191Z,9.27
2023-05-08T07:45:14.509Z,8.90
2023-05-08T07:47:51.389Z,22.10
2023-05-08T07:50:20.310Z,18.13
2023-05-08T07:52:50.297Z,13.10
2023-05-08T07:55:21.626Z,10.95
2023-05-08T07:57:50.078Z,10.10
2023-05-08T08:00:19.042Z,10.00
2023-05-08T08:02:47.745Z,9.20
2023-05-08T08:05:16.692Z,9.43
2023-05-08T08:07:45.355Z,9.23
2023-05-08T08:10:13.859Z,9.20
2023-05-08T08:12:43.607Z,9.40
2023-05-08T08:15:12.781Z,9.43
2023-05-08T08:17:41.417Z,8.77
2023-05-08T08:20:10.819Z,8.03
2023-05-08T08:22:39.541Z,8.13
2023-05-08T08:25:08.600Z,7.80
2023-05-08T08:27:37.185Z,7.80
2023-05-08T08:30:16.832Z,7.60
2023-05-08T08:32:46.756Z,8.23
2023-05-08T08:35:15.820Z,7.70
2023-05-08T08:37:45.398Z,7.95
2023-05-08T08:40:14.196Z,8.00
2023-05-08T08:42:42.674Z,8.00
2023-05-08T08:45:13.147Z,8.38
2023-05-08T08:47:43.961Z,7.88
2023-05-08T08:50:15.356Z,7.90
2023-05-08T08:52:54.637Z,8.32
2023-05-08T08:55:24.494Z,8.32
2023-05-08T08:58:01.363Z,8.40
2023-05-08T09:00:33.061Z,8.52
2023-05-08T09:03:02.028Z,8.55
2023-05-08T09:05:31.671Z,7.05
2023-05-08T09:08:00.563Z,7.57
2023-05-08T09:10:29.224Z,8.15
2023-05-08T09:12:57.789Z,8.05
2023-05-08T09:15:26.269Z,8.70
2023-05-08T09:17:56.225Z,8.27
2023-05-08T09:20:25.750Z,9.35
2023-05-08T09:22:55.392Z,9.13
2023-05-08T09:25:25.060Z,8.35
2023-05-08T09:27:53.485Z,9.00
2023-05-08T09:30:21.928Z,8.82
2023-05-08T09:32:50.396Z,9.18
2023-05-08T09:35:20.154Z,8.75
2023-05-08T09:37:48.592Z,9.30
2023-05-08T09:40:19.019Z,9.02
2023-05-08T09:42:47.754Z,8.88
2023-05-08T09:45:29.420Z,8.57
2023-05-08T09:47:58.421Z,8.23
2023-05-08T09:50:28.343Z,8.70
2023-05-08T09:52:56.883Z,8.80
2023-05-08T09:55:25.554Z,9.07
2023-05-08T09:57:56.662Z,8.55
2023-05-08T10:00:26.449Z,7.57
2023-05-08T10:03:00.427Z,7.05
2023-05-08T10:05:32.515Z,9.90
2023-05-08T10:08:19.632Z,9.88
2023-05-08T10:10:48.438Z,9.27
2023-05-08T10:13:16.896Z,8.30
2023-05-08T10:15:46.205Z,9.90
2023-05-08T10:18:17.800Z,9.05
2023-05-08T10:20:49.970Z,8.73
2023-05-08T10:23:19.290Z,8.70
2023-05-08T10:25:49.919Z,9.00
2023-05-08T10:28:25.291Z,8.77
2023-05-08T10:30:57.195Z,8.65
2023-05-08T10:33:31.350Z,8.63
2023-05-08T10:36:01.867Z,9.02
2023-05-08T10:38:32.327Z,9.05
2023-05-08T10:41:02.829Z,8.88
2023-05-08T10:43:32.507Z,9.45
2023-05-08T10:46:08.529Z,9.05
2023-05-08T10:48:46.584Z,9.52
2023-05-08T10:51:23.142Z,8.77
2023-05-08T10:53:56.593Z,9.13
2023-05-08T10:56:28.315Z,8.90
2023-05-08T10:59:01.122Z,8.95
2023-05-08T11:01:29.628Z,9.52
2023-05-08T11:03:58.281Z,8.88
2023-05-08T11:06:49.205Z,8.85
2023-05-08T11:09:23.366Z,9.40
2023-05-08T11:12:06.902Z,8.60
2023-05-08T11:14:38.207Z,9.18
2023-05-08T11:17:08.546Z,8.43
2023-05-08T11:19:38.154Z,9.38
2023-05-08T11:22:24.353Z,9.27
2023-05-08T11:24:59.099Z,9.65
2023-05-08T11:27:55.807Z,9.20
2023-05-08T11:30:27.149Z,8.95
2023-05-08T11:33:00.263Z,9.07
2023-05-08T11:35:46.968Z,9.25
2023-05-08T11:38:22.464Z,8.80
2023-05-08T11:40:56.078Z,9.55
2023-05-08T11:43:32.871Z,9.32
2023-05-08T11:46:04.216Z,8.73
2023-05-08T11:48:33.593Z,8.70
2023-05-08T11:51:02.709Z,9.10
2023-05-08T11:53:33.080Z,8.35
2023-05-08T11:56:02.007Z,8.90
2023-05-08T11:58:31.121Z,7.75
2023-05-08T12:00:59.718Z,8.25
2023-05-08T12:03:28.246Z,9.30
2023-05-08T12:05:59.059Z,8.05
2023-05-08T12:08:27.951Z,8.80
2023-05-08T12:10:59.559Z,8.10
2023-05-08T12:13:29.862Z,8.35
2023-05-08T12:16:00.488Z,8.70
2023-05-08T12:18:30.915Z,8.18
2023-05-08T12:21:01.344Z,8.40
2023-05-08T12:23:30.988Z,7.75
2023-05-08T12:26:02.628Z,7.72
2023-05-08T12:28:32.382Z,7.70
2023-05-08T12:31:01.235Z,7.78
2023-05-08T12:33:30.722Z,8.43
2023-05-08T12:35:59.370Z,8.00
2023-05-08T12:38:29.006Z,8.27
2023-05-08T12:40:57.717Z,8.70
2023-05-08T12:43:35.223Z,9.23
2023-05-08T12:46:04.740Z,9.10
2023-05-08T12:48:33.413Z,8.80
2023-05-08T12:51:06.989Z,8.07
2023-05-08T12:53:35.996Z,9.15
2023-05-08T12:56:06.189Z,9.82
2023-05-08T12:58:36.310Z,8.50
2023-05-08T13:01:13.140Z,8.80
2023-05-08T13:03:42.848Z,9.35
2023-05-08T13:06:22.457Z,9.55
2023-05-08T13:08:55.250Z,8.88
2023-05-08T13:11:31.508Z,8.95
2023-05-08T13:14:01.367Z,8.38
2023-05-08T13:16:29.940Z,8.20
2023-05-08T13:18:58.482Z,8.65
2023-05-08T13:21:28.096Z,9.48
2023-05-08T13:23:57.354Z,8.57
2023-05-08T13:26:26.367Z,8.38
2023-05-08T13:28:56.664Z,8.85
2023-05-08T13:31:26.717Z,9.10
2023-05-08T13:33:55.154Z,9.00
2023-05-08T13:36:23.605Z,8.90
2023-05-08T13:38:54.900Z,8.70
2023-05-08T13:41:23.389Z,8.75
2023-05-08T13:43:51.796Z,8.70
2023-05-08T13:46:20.431Z,8.98
2023-05-08T13:48:50.198Z,9.10
2023-05-08T13:51:18.745Z,8.95
2023-05-08T13:53:47.117Z,9.90
2023-05-08T13:56:15.858Z,9.77
2023-05-08T13:58:44.260Z,9.60
2023-05-08T14:01:25.667Z,9.60
2023-05-08T14:03:56.600Z,9.82
2023-05-08T14:06:25.103Z,9.57
2023-05-08T14:08:55.510Z,9.50
2023-05-08T14:11:25.587Z,9.10
2023-05-08T14:13:54.092Z,10.45
2023-05-08T14:16:22.641Z,9.35
2023-05-08T14:18:51.270Z,9.00
2023-05-08T14:21:20.965Z,9.60
2023-05-08T14:23:49.399Z,9.53
2023-05-08T14:26:17.825Z,9.20
2023-05-08T14:28:46.397Z,9.15
2023-05-08T14:31:14.834Z,8.48
2023-05-08T14:33:43.233Z,9.63
2023-05-08T14:36:11.818Z,9.82
2023-05-08T14:38:41.577Z,9.57
2023-05-08T14:41:10.136Z,9.35
2023-05-08T14:43:38.588Z,9.18
2023-05-08T14:46:07.047Z,9.23
2023-05-08T14:48:35.512Z,10.40
2023-05-08T14:51:04.038Z,9.70
2023-05-08T14:53:32.635Z,10.20
2023-05-08T14:56:03.947Z,9.70
2023-05-08T14:58:32.660Z,10.60
2023-05-08T15:01:01.053Z,10.70
2023-05-08T15:03:29.646Z,10.20
2023-05-08T15:05:58.193Z,9.60
2023-05-08T15:08:26.612Z,10.20
2023-05-08T15:10:55.007Z,10.07
2023-05-08T15:13:24.796Z,10.27
2023-05-08T15:15:53.543Z,10.57
2023-05-08T15:18:23.530Z,10.40
2023-05-08T15:20:51.924Z,10.07
2023-05-08T15:23:21.199Z,10.40
2023-05-08T15:25:49.700Z,10.17
2023-05-08T15:28:18.141Z,9.80
2023-05-08T15:30:48.816Z,8.47
2023-05-08T15:33:17.282Z,10.43
2023-05-08T15:35:45.742Z,10.40
2023-05-08T15:38:14.254Z,9.40
2023-05-08T15:40:42.786Z,9.30
2023-05-08T15:43:11.266Z,9.97
2023-05-08T15:45:39.815Z,9.00
2023-05-08T15:48:09.827Z,9.37
2023-05-08T15:50:38.254Z,9.60
2023-05-08T15:53:06.723Z,9.27
2023-05-08T15:55:35.073Z,9.40
2023-05-08T15:58:03.644Z,8.93
2023-05-08T16:00:44.097Z,8.37
2023-05-08T16:03:14.931Z,8.13
2023-05-08T16:05:43.605Z,9.13
2023-05-08T16:08:13.212Z,8.83
2023-05-08T16:10:42.472Z,9.53
2023-05-08T16:13:11.130Z,10.40
2023-05-08T16:15:39.695Z,11.50
2023-05-08T16:18:08.976Z,10.67
2023-05-08T16:20:41.802Z,9.90
2023-05-08T16:23:10.419Z,10.43
2023-05-08T16:25:38.891Z,9.07
2023-05-08T16:28:07.474Z,9.47
2023-05-08T16:30:36.161Z,9.20
2023-05-08T16:33:04.753Z,9.87
2023-05-08T16:35:33.536Z,10.27
2023-05-08T16:38:04.809Z,10.07
2023-05-08T16:40:33.448Z,9.70
2023-05-08T16:43:01.937Z,10.27
2023-05-08T16:45:30.372Z,10.00
2023-05-08T16:47:58.837Z,9.47
2023-05-08T16:50:27.296Z,9.77
2023-05-08T16:52:57.246Z,9.93
2023-05-08T16:55:27.153Z,10.60
2023-05-08T16:57:55.654Z,9.93
2023-05-08T17:00:24.644Z,10.47
2023-05-08T17:02:53.193Z,11.50
2023-05-08T17:05:21.671Z,11.60
2023-05-08T17:07:50.205Z,10.57
2023-05-08T17:10:18.586Z,10.33
2023-05-08T17:12:49.064Z,10.07
2023-05-08T17:15:17.605Z,10.80
2023-05-08T17:17:47.804Z,10.30
2023-05-08T17:20:16.877Z,11.43
2023-05-08T17:22:45.311Z,10.80
2023-05-08T17:25:13.708Z,11.20
2023-05-08T17:27:42.264Z,10.60
2023-05-08T17:30:15.144Z,10.57
2023-05-08T17:32:44.012Z,11.07
2023-05-08T17:35:12.384Z,10.43
2023-05-08T17:37:41.000Z,9.50
2023-05-08T17:40:11.007Z,10.00
2023-05-08T17:42:39.545Z,10.00
2023-05-08T17:45:08.866Z,9.77
2023-05-08T17:47:39.772Z,10.60
2023-05-08T17:50:09.488Z,10.80
2023-05-08T17:52:37.895Z,11.00
2023-05-08T17:55:06.712Z,11.47
2023-05-08T17:57:35.143Z,10.93
2023-05-08T18:00:03.767Z,11.30
2023-05-08T18:02:38.331Z,11.13
2023-05-08T18:05:07.401Z,10.67
2023-05-08T18:07:35.812Z,10.97
2023-05-08T18:10:04.555Z,10.93
2023-05-08T18:12:35.651Z,11.43
2023-05-08T18:15:07.897Z,11.07
2023-05-08T18:17:36.445Z,10.83
2023-05-08T18:20:07.947Z,10.50
2023-05-08T18:22:36.634Z,12.20
2023-05-08T18:25:05.269Z,11.60
2023-05-08T18:27:34.533Z,10.83
2023-05-08T18:30:03.111Z,11.03
2023-05-08T18:32:31.557Z,11.03
2023-05-08T18:35:00.115Z,11.53
2023-05-08T18:37:30.305Z,11.57
2023-05-08T18:39:58.740Z,11.50
2023-05-08T18:42:27.183Z,11.30
2023-05-08T18:44:56.367Z,11.33
2023-05-08T18:47:24.822Z,11.80
2023-05-08T18:49:53.261Z,13.17
2023-05-08T18:52:21.674Z,13.47
2023-05-08T18:54:51.416Z,14.03
2023-05-08T18:57:19.927Z,14.17
2023-05-08T18:59:48.241Z,12.70
2023-05-08T19:02:16.707Z,12.67
2023-05-08T19:04:45.117Z,11.83
2023-05-08T19:07:13.500Z,12.57
2023-05-08T19:09:41.839Z,12.30
2023-05-08T19:12:11.614Z,11.77
2023-05-08T19:14:40.017Z,11.83
2023-05-08T19:17:08.527Z,12.00
2023-05-08T19:19:36.987Z,11.80
2023-05-08T19:22:05.354Z,11.63
2023-05-08T19:24:34.347Z,11.83
2023-05-08T19:27:02.914Z,11.50
2023-05-08T19:29:34.863Z,11.63
2023-05-08T19:32:04.222Z,11.13
2023-05-08T19:34:33.153Z,12.17
2023-05-08T19:37:01.614Z,10.50
2023-05-08T19:39:30.004Z,11.37
2023-05-08T19:41:59.376Z,11.93
2023-05-08T19:44:28.130Z,12.37
2023-05-08T19:46:57.802Z,11.20
2023-05-08T19:49:26.569Z,11.10
2023-05-08T19:51:54.954Z,10.93
2023-05-08T19:54:23.372Z,11.00
2023-05-08T19:56:51.849Z,11.60
2023-05-08T19:59:20.285Z,11.50
2023-05-08T20:01:50.355Z,11.20
2023-05-08T20:04:20.194Z,10.33
2023-05-08T20:06:48.615Z,10.87
2023-05-08T20:09:17.262Z,10.87
2023-05-08T20:11:46.464Z,11.23
2023-05-08T20:14:15.181Z,11.87
2023-05-08T20:16:43.826Z,10.73
2023-05-08T20:19:12.424Z,11.30
2023-05-08T20:21:42.244Z,10.83
2023-05-08T20:24:10.850Z,10.53
2023-05-08T20:26:39.332Z,11.10
2023-05-08T20:29:07.796Z,12.20
2023-05-08T20:31:36.368Z,11.07
2023-05-08T20:34:04.809Z,11.27
2023-05-08T20:36:33.323Z,11.67
2023-05-08T20:39:03.153Z,12.07
2023-05-08T20:41:31.498Z,10.77
2023-05-08T20:43:59.855Z,10.70
2023-05-08T20:46:28.298Z,10.33
2023-05-08T20:48:58.841Z,12.00
2023-05-08T20:51:27.391Z,11.50
2023-05-08T20:53:55.827Z,11.73
2023-05-08T20:56:25.630Z,11.70
2023-05-08T20:58:54.051Z,11.57
2023-05-08T21:01:22.521Z,11.53
2023-05-08T21:03:50.903Z,11.63
2023-05-08T21:06:19.266Z,10.93
2023-05-08T21:08:47.674Z,11.60
2023-05-08T21:11:16.443Z,11.97
2023-05-08T21:13:46.044Z,11.33
2023-05-08T21:16:14.438Z,11.17
2023-05-08T21:18:42.980Z,11.17
2023-05-08T21:21:18.075Z,11.80
2023-05-08T21:23:46.574Z,12.20
2023-05-08T21:26:15.057Z,11.63
2023-05-08T21:28:43.434Z,11.63
2023-05-08T21:31:13.345Z,11.90
2023-05-08T21:33:41.868Z,12.03
2023-05-08T21:36:10.365Z,12.77
2023-05-08T21:38:38.673Z,11.67
2023-05-08T21:41:08.382Z,11.30
2023-05-08T21:43:37.349Z,11.63
2023-05-08T21:46:06.937Z,11.07
2023-05-08T21:48:37.640Z,12.03
2023-05-08T21:51:07.217Z,11.17
2023-05-08T21:53:35.789Z,11.03
2023-05-08T21:56:04.248Z,11.47
2023-05-08T21:58:32.705Z,11.40
2023-05-08T22:01:01.114Z,10.77
2023-05-08T22:03:30.731Z,11.27
2023-05-08T22:06:00.573Z,10.77
2023-05-08T22:08:29.047Z,11.10
2023-05-08T22:10:57.578Z,11.23
2023-05-08T22:13:26.134Z,10.70
2023-05-08T22:15:54.532Z,11.30
2023-05-08T22:18:23.123Z,11.40
2023-05-08T22:20:51.647Z,11.00
2023-05-08T22:23:21.437Z,11.50
2023-05-08T22:25:49.909Z,10.73
2023-05-08T22:28:18.314Z,11.60
2023-05-08T22:30:46.788Z,11.33
2023-05-08T22:33:15.186Z,11.53
2023-05-08T22:35:43.576Z,10.77
2023-05-08T22:38:12.006Z,11.63
2023-05-08T22:40:42.544Z,11.57
2023-05-08T22:43:10.953Z,11.70
2023-05-08T22:45:39.400Z,11.60
2023-05-08T22:48:08.538Z,11.47
2023-05-08T22:50:37.411Z,11.73
2023-05-08T22:53:08.368Z,11.20
2023-05-08T22:55:36.909Z,11.97
2023-05-08T22:58:06.681Z,11.57
2023-05-08T23:00:35.245Z,11.97
2023-05-08T23:03:03.777Z,12.03
2023-05-08T23:05:32.244Z,11.57
2023-05-08T23:08:00.674Z,12.03
2023-05-08T23:10:29.066Z,11.50
2023-05-08T23:12:57.521Z,11.80
2023-05-08T23:15:27.232Z,11.53
2023-05-08T23:17:55.913Z,11.70
2023-05-08T23:20:24.452Z,11.80
2023-05-08T23:22:52.869Z,11.90
2023-05-08T23:25:21.350Z,12.03
2023-05-08T23:27:49.750Z,11.87
2023-05-08T23:30:18.265Z,11.87
2023-05-08T23:32:48.129Z,12.30
2023-05-08T23:35:16.785Z,11.83
2023-05-08T23:37:45.234Z,11.63
2023-05-08T23:40:14.025Z,11.33
2023-05-08T23:42:42.294Z,12.43
2023-05-08T23:45:12.298Z,12.00
2023-05-08T23:47:41.612Z,11.60
2023-05-08T23:50:12.246Z,12.80
2023-05-08T23:52:40.636Z,12.20
2023-05-08T23:55:10.066Z,12.03
2023-05-08T23:57:38.746Z,12.03
